Arabi, Louisiana
Current Conditions -  °F | °C
As of 10:55 AM on Thursday 30 Oct 2014 (Local Time) from KVSH Reporting Station
Clear Clear  
Wind Chill: 70°   Ceiling: Unl
Heat Index: 70°   Visibility: 10mi
Dew Point: 41°   Wind: 9mph
Humidity: 35%   Direction: 20°NNE
Pressure: 30.12"   Gusts: 18mph
Location:  29.95°N, 90.01°W
Report Text: KVSH 301555Z AUTO 02008G16KT 10SM CLR 21/05 A3012 RMK AO1
Loading
Personal Weather Stations






























Interactive Weather Map
Tropical Storm Tracking
New forecast layout! Learn more

10-Day Weather Forecast

Advertisements
Track Severe Weather on mobile